createdAt,value
2023-05-20T00:00:28.244Z,15.89
2023-05-20T00:02:55.872Z,15.86
2023-05-20T00:05:24.011Z,15.86
2023-05-20T00:07:51.667Z,15.82
2023-05-20T00:10:19.320Z,15.80
2023-05-20T00:12:46.921Z,15.81
2023-05-20T00:15:14.461Z,15.82
2023-05-20T00:17:42.073Z,15.82
2023-05-20T00:20:10.162Z,15.80
2023-05-20T00:22:37.739Z,15.77
2023-05-20T00:25:05.703Z,15.71
2023-05-20T00:27:33.240Z,15.69
2023-05-20T00:30:00.928Z,15.66
2023-05-20T00:32:28.747Z,15.62
2023-05-20T00:35:00.852Z,15.55
2023-05-20T00:37:28.507Z,15.52
2023-05-20T00:39:56.170Z,15.52
2023-05-20T00:42:26.388Z,15.55
2023-05-20T00:44:55.175Z,15.62
2023-05-20T00:47:29.598Z,15.69
2023-05-20T00:49:58.531Z,15.73
2023-05-20T00:52:27.335Z,15.78
2023-05-20T00:54:54.904Z,15.75
2023-05-20T00:57:22.468Z,15.75
2023-05-20T00:59:50.088Z,15.74
2023-05-20T01:02:18.802Z,15.78
2023-05-20T01:04:47.332Z,15.82
2023-05-20T01:07:19.928Z,15.84
2023-05-20T01:09:47.775Z,15.87
2023-05-20T01:12:30.321Z,15.90
2023-05-20T01:15:12.525Z,15.91
2023-05-20T01:17:45.015Z,15.89
2023-05-20T01:20:14.821Z,15.92
2023-05-20T01:22:56.947Z,15.94
2023-05-20T01:25:26.275Z,15.98
2023-05-20T01:27:59.861Z,16.01
2023-05-20T01:30:34.499Z,16.03
2023-05-20T01:33:08.245Z,16.04
2023-05-20T01:35:36.692Z,16.05
2023-05-20T01:38:06.175Z,16.02
2023-05-20T01:40:35.011Z,16.01
2023-05-20T01:43:04.302Z,16.04
2023-05-20T01:45:31.968Z,16.04
2023-05-20T01:48:01.695Z,16.05
2023-05-20T01:50:29.384Z,16.03
2023-05-20T01:52:57.003Z,15.98
2023-05-20T01:55:25.947Z,15.96
2023-05-20T01:57:53.528Z,16.00
2023-05-20T02:00:21.667Z,15.99
2023-05-20T02:02:49.915Z,15.95
2023-05-20T02:05:17.769Z,15.92
2023-05-20T02:07:45.403Z,15.92
2023-05-20T02:10:14.010Z,15.89
2023-05-20T02:12:41.679Z,15.86
2023-05-20T02:15:10.166Z,15.88
2023-05-20T02:17:37.813Z,15.89
2023-05-20T02:20:07.685Z,15.93
2023-05-20T02:22:36.075Z,15.98
2023-05-20T02:25:04.973Z,16.00
2023-05-20T02:27:32.662Z,15.96
2023-05-20T02:30:01.185Z,15.94
2023-05-20T02:32:28.936Z,15.92
2023-05-20T02:34:56.578Z,15.95
2023-05-20T02:37:24.956Z,15.92
2023-05-20T02:39:52.572Z,15.90
2023-05-20T02:42:20.536Z,15.88
2023-05-20T02:44:48.247Z,15.84
2023-05-20T02:47:15.909Z,15.86
2023-05-20T02:49:43.562Z,15.88
2023-05-20T02:52:11.338Z,15.91
2023-05-20T02:54:38.941Z,15.89
2023-05-20T02:57:06.712Z,15.92
2023-05-20T02:59:34.263Z,15.98
2023-05-20T03:02:03.126Z,15.99
2023-05-20T03:04:31.671Z,15.99
2023-05-20T03:06:59.344Z,16.00
2023-05-20T03:09:27.274Z,15.90
2023-05-20T03:11:54.949Z,15.89
2023-05-20T03:14:22.490Z,15.91
2023-05-20T03:16:50.642Z,15.94
2023-05-20T03:19:19.822Z,16.00
2023-05-20T03:21:47.416Z,16.06
2023-05-20T03:24:15.252Z,16.09
2023-05-20T03:26:43.629Z,16.14
2023-05-20T03:29:11.204Z,16.19
2023-05-20T03:31:38.869Z,16.22
2023-05-20T03:34:06.450Z,16.24
2023-05-20T03:36:34.108Z,16.23
2023-05-20T03:39:04.192Z,16.25
2023-05-20T03:41:33.243Z,16.28
2023-05-20T03:44:01.037Z,16.28
2023-05-20T03:46:28.687Z,16.28
2023-05-20T03:48:57.814Z,16.29
2023-05-20T03:51:25.835Z,16.26
2023-05-20T03:53:56.184Z,16.27
2023-05-20T03:56:23.850Z,16.25
2023-05-20T03:58:51.519Z,16.24
2023-05-20T04:01:19.718Z,16.24
2023-05-20T04:03:47.515Z,16.25
2023-05-20T04:06:15.423Z,16.23
2023-05-20T04:08:43.063Z,16.22
2023-05-20T04:11:10.804Z,16.21
2023-05-20T04:13:38.379Z,16.17
2023-05-20T04:16:06.567Z,16.15
2023-05-20T04:18:38.964Z,16.11
2023-05-20T04:21:06.658Z,16.08
2023-05-20T04:23:34.249Z,16.05
2023-05-20T04:26:02.541Z,16.02
2023-05-20T04:28:32.208Z,16.00
2023-05-20T04:31:04.369Z,16.00
2023-05-20T04:33:37.992Z,15.99
2023-05-20T04:36:16.360Z,15.97
2023-05-20T04:38:45.454Z,15.95
2023-05-20T04:41:13.042Z,15.93
2023-05-20T04:43:40.950Z,15.93
2023-05-20T04:46:09.967Z,15.91
2023-05-20T04:48:38.136Z,15.90
2023-05-20T04:51:05.695Z,15.88
2023-05-20T04:53:35.974Z,15.88
2023-05-20T04:56:03.694Z,15.84
2023-05-20T04:58:31.736Z,15.84
2023-05-20T05:01:01.416Z,15.82
2023-05-20T05:03:29.258Z,15.82
2023-05-20T05:05:58.934Z,15.82
2023-05-20T05:08:26.956Z,15.86
2023-05-20T05:10:54.842Z,15.89
2023-05-20T05:13:22.449Z,15.93
2023-05-20T05:15:59.626Z,16.00
2023-05-20T05:18:28.626Z,16.02
2023-05-20T05:21:04.092Z,16.06
2023-05-20T05:23:33.375Z,16.10
2023-05-20T05:26:01.088Z,16.16
2023-05-20T05:28:28.779Z,16.24
2023-05-20T05:30:56.713Z,16.30
2023-05-20T05:33:24.347Z,16.30
2023-05-20T05:35:52.140Z,16.33
2023-05-20T05:38:19.662Z,16.38
2023-05-20T05:40:47.720Z,16.47
2023-05-20T05:43:16.378Z,16.52
2023-05-20T05:45:45.645Z,16.64
2023-05-20T05:48:13.979Z,16.77
2023-05-20T05:50:46.685Z,16.88
2023-05-20T05:53:16.460Z,16.92
2023-05-20T05:55:47.572Z,16.98
2023-05-20T05:58:16.416Z,17.02
2023-05-20T06:00:44.238Z,17.09
2023-05-20T06:03:12.113Z,17.11
2023-05-20T06:05:40.887Z,17.11
2023-05-20T06:08:08.721Z,17.10
2023-05-20T06:10:37.302Z,17.16
2023-05-20T06:13:05.671Z,17.24
2023-05-20T06:15:34.164Z,17.31
2023-05-20T06:18:03.455Z,17.36
2023-05-20T06:20:32.736Z,17.41
2023-05-20T06:23:00.419Z,17.43
2023-05-20T06:25:36.361Z,17.47
2023-05-20T06:28:04.184Z,17.52
2023-05-20T06:30:32.572Z,17.54
2023-05-20T06:33:00.303Z,17.56
2023-05-20T06:35:27.977Z,17.61
2023-05-20T06:37:55.858Z,17.62
2023-05-20T06:40:23.636Z,17.63
2023-05-20T06:42:51.241Z,17.63
2023-05-20T06:45:19.369Z,17.55
2023-05-20T06:47:54.465Z,17.58
2023-05-20T06:50:22.151Z,17.65
2023-05-20T06:52:49.853Z,17.70
2023-05-20T06:55:17.645Z,17.74
2023-05-20T06:57:45.379Z,17.79
2023-05-20T07:00:14.477Z,17.79
2023-05-20T07:02:43.928Z,17.81
2023-05-20T07:05:14.655Z,17.91
2023-05-20T07:07:42.237Z,17.98
2023-05-20T07:10:10.335Z,18.17
2023-05-20T07:12:38.039Z,18.30
2023-05-20T07:15:06.890Z,18.39
2023-05-20T07:17:35.188Z,18.51
2023-05-20T07:20:04.216Z,18.60
2023-05-20T07:22:32.770Z,18.64
2023-05-20T07:25:29.217Z,18.73
2023-05-20T07:27:56.859Z,18.73
2023-05-20T07:30:24.496Z,18.81
2023-05-20T07:33:08.258Z,19.08
2023-05-20T07:35:36.278Z,19.19
2023-05-20T07:38:04.095Z,19.22
2023-05-20T07:40:32.676Z,19.27
2023-05-20T07:43:00.321Z,19.34
2023-05-20T07:45:27.940Z,19.32
2023-05-20T07:47:55.525Z,19.34
2023-05-20T07:50:23.670Z,19.42
2023-05-20T07:52:56.495Z,19.50
2023-05-20T07:55:27.330Z,19.67
2023-05-20T07:57:56.288Z,19.86
2023-05-20T08:00:25.005Z,20.00
2023-05-20T08:02:52.651Z,20.10
2023-05-20T08:05:28.168Z,20.21
2023-05-20T08:07:56.345Z,20.27
2023-05-20T08:10:26.958Z,20.36
2023-05-20T08:12:54.901Z,20.48
2023-05-20T08:15:22.640Z,20.54
2023-05-20T08:17:50.400Z,20.54
2023-05-20T08:20:20.141Z,20.42
2023-05-20T08:22:47.699Z,20.29
2023-05-20T08:25:16.058Z,20.22
2023-05-20T08:27:45.019Z,20.19
2023-05-20T08:30:13.621Z,20.10
2023-05-20T08:32:42.074Z,20.01
2023-05-20T08:35:10.197Z,20.02
2023-05-20T08:37:37.789Z,20.12
2023-05-20T08:40:06.515Z,20.19
2023-05-20T08:42:34.357Z,20.25
2023-05-20T08:45:05.400Z,20.25
2023-05-20T08:47:33.411Z,20.26
2023-05-20T08:50:00.975Z,20.35
2023-05-20T08:52:31.525Z,20.44
2023-05-20T08:54:59.488Z,20.52
2023-05-20T08:57:27.857Z,20.65
2023-05-20T08:59:57.226Z,20.78
2023-05-20T09:02:24.741Z,20.89
2023-05-20T09:04:53.940Z,20.97
2023-05-20T09:07:28.958Z,21.08
2023-05-20T09:09:57.161Z,21.08
2023-05-20T09:12:24.700Z,21.11
2023-05-20T09:14:52.264Z,21.04
2023-05-20T09:17:23.045Z,21.06
2023-05-20T09:19:51.599Z,21.16
2023-05-20T09:22:39.719Z,21.20
2023-05-20T09:25:08.121Z,21.20
2023-05-20T09:27:36.150Z,21.20
2023-05-20T09:30:07.658Z,21.11
2023-05-20T09:32:35.430Z,21.09
2023-05-20T09:35:06.115Z,21.11
2023-05-20T09:37:36.745Z,21.18
2023-05-20T09:40:06.263Z,21.27
2023-05-20T09:42:52.651Z,21.32
2023-05-20T09:45:22.173Z,21.36
2023-05-20T09:47:53.032Z,21.37
2023-05-20T09:50:23.254Z,21.35
2023-05-20T09:52:53.625Z,21.21
2023-05-20T09:55:24.904Z,21.25
2023-05-20T09:57:54.610Z,21.28
2023-05-20T10:00:22.158Z,21.36
2023-05-20T10:02:53.759Z,21.47
2023-05-20T10:05:37.683Z,21.53
2023-05-20T10:08:25.879Z,21.53
2023-05-20T10:11:02.112Z,21.51
2023-05-20T10:13:39.132Z,21.53
2023-05-20T10:16:24.698Z,21.71
2023-05-20T10:19:27.591Z,21.95
2023-05-20T10:22:08.606Z,22.02
2023-05-20T10:24:41.742Z,22.07
2023-05-20T10:27:12.790Z,22.25
2023-05-20T10:29:52.026Z,22.47
2023-05-20T10:32:34.754Z,22.56
2023-05-20T10:35:09.039Z,22.58
2023-05-20T10:37:45.253Z,22.49
2023-05-20T10:40:19.660Z,22.42
2023-05-20T10:42:48.784Z,22.39
2023-05-20T10:45:28.970Z,22.47
2023-05-20T10:47:59.077Z,22.57
2023-05-20T10:50:36.372Z,22.74
2023-05-20T10:53:18.816Z,22.86
2023-05-20T10:55:54.920Z,22.95
2023-05-20T10:58:24.632Z,22.83
2023-05-20T11:00:55.082Z,22.80
2023-05-20T11:03:24.114Z,22.84
2023-05-20T11:05:52.250Z,22.84
2023-05-20T11:08:27.805Z,22.74
2023-05-20T11:10:59.279Z,22.83
2023-05-20T11:13:27.659Z,22.96
2023-05-20T11:15:55.697Z,23.00
2023-05-20T11:18:23.230Z,23.11
2023-05-20T11:20:51.073Z,23.25
2023-05-20T11:23:19.165Z,23.35
2023-05-20T11:25:46.786Z,23.42
2023-05-20T11:28:14.792Z,23.51
2023-05-20T11:30:45.924Z,23.65
2023-05-20T11:33:15.902Z,23.82
2023-05-20T11:35:50.723Z,23.97
2023-05-20T11:38:22.263Z,24.10
2023-05-20T11:40:55.379Z,24.20
2023-05-20T11:43:24.046Z,24.43
2023-05-20T11:45:59.828Z,24.38
2023-05-20T11:48:27.866Z,24.40
2023-05-20T11:50:57.062Z,24.47
2023-05-20T11:53:25.251Z,24.47
2023-05-20T11:56:00.362Z,24.53
2023-05-20T11:58:30.914Z,24.56
2023-05-20T12:01:13.518Z,24.72
2023-05-20T12:03:47.121Z,24.88
2023-05-20T12:06:14.964Z,24.92
2023-05-20T12:08:42.512Z,25.00
2023-05-20T12:11:10.099Z,25.08
2023-05-20T12:13:38.026Z,25.15
2023-05-20T12:16:06.400Z,25.26
2023-05-20T12:18:34.280Z,25.42
2023-05-20T12:21:01.824Z,25.55
2023-05-20T12:23:30.742Z,25.60
2023-05-20T12:25:58.320Z,25.63
2023-05-20T12:28:26.137Z,25.67
2023-05-20T12:30:53.718Z,25.77
2023-05-20T12:33:21.385Z,25.92
2023-05-20T12:35:48.902Z,26.08
2023-05-20T12:38:16.524Z,26.22
2023-05-20T12:40:44.144Z,26.36
2023-05-20T12:43:11.743Z,26.42
2023-05-20T12:45:39.271Z,26.45
2023-05-20T12:48:08.098Z,26.55
2023-05-20T12:50:36.168Z,26.64
2023-05-20T12:53:03.986Z,26.75
2023-05-20T12:55:31.601Z,26.76
2023-05-20T12:57:59.173Z,26.77
2023-05-20T13:00:26.708Z,26.77
2023-05-20T13:02:54.737Z,26.75
2023-05-20T13:05:23.258Z,26.75
2023-05-20T13:07:51.494Z,26.85
2023-05-20T13:10:19.944Z,26.99
2023-05-20T13:12:47.700Z,26.76
2023-05-20T13:15:16.063Z,26.65
2023-05-20T13:17:43.730Z,26.64
2023-05-20T13:20:12.132Z,26.63
2023-05-20T13:22:39.764Z,26.49
2023-05-20T13:25:09.097Z,26.37
2023-05-20T13:27:36.688Z,26.27
2023-05-20T13:30:06.160Z,26.31
2023-05-20T13:32:33.875Z,26.40
2023-05-20T13:35:01.559Z,26.45
2023-05-20T13:37:29.981Z,26.49
2023-05-20T13:39:57.633Z,26.57
2023-05-20T13:42:25.522Z,26.48
2023-05-20T13:44:53.173Z,26.40
2023-05-20T13:47:20.942Z,26.31
2023-05-20T13:49:48.513Z,26.34
2023-05-20T13:52:16.154Z,26.25
2023-05-20T13:54:46.745Z,26.23
2023-05-20T13:57:15.604Z,26.17
2023-05-20T13:59:43.242Z,26.31
2023-05-20T14:02:11.049Z,26.56
2023-05-20T14:04:39.716Z,26.94
2023-05-20T14:07:09.847Z,27.16
2023-05-20T14:09:37.957Z,27.29
2023-05-20T14:12:06.551Z,27.33
2023-05-20T14:14:34.508Z,27.32
2023-05-20T14:17:02.096Z,27.44
2023-05-20T14:19:30.051Z,27.52
2023-05-20T14:22:01.000Z,27.84
2023-05-20T14:24:28.951Z,28.16
2023-05-20T14:26:56.580Z,28.33
2023-05-20T14:29:24.303Z,28.25
2023-05-20T14:31:51.903Z,28.28
2023-05-20T14:34:19.542Z,28.39
2023-05-20T14:36:47.739Z,28.31
2023-05-20T14:39:15.517Z,28.15
2023-05-20T14:41:43.084Z,28.20
2023-05-20T14:44:10.720Z,28.30
2023-05-20T14:46:38.480Z,28.46
2023-05-20T14:49:06.234Z,28.57
2023-05-20T14:51:33.818Z,28.59
2023-05-20T14:54:01.404Z,28.54
2023-05-20T14:56:29.272Z,28.52
2023-05-20T14:58:59.354Z,28.54
2023-05-20T15:01:27.007Z,28.72
2023-05-20T15:03:54.698Z,28.89
2023-05-20T15:06:22.814Z,28.86
2023-05-20T15:08:50.637Z,28.53
2023-05-20T15:11:18.354Z,28.27
2023-05-20T15:13:46.550Z,28.19
2023-05-20T15:16:14.368Z,28.05
2023-05-20T15:18:42.145Z,27.90
2023-05-20T15:21:09.837Z,27.83
2023-05-20T15:23:37.495Z,27.85
2023-05-20T15:26:05.474Z,27.84
2023-05-20T15:28:33.265Z,27.69
2023-05-20T15:31:01.061Z,27.57
2023-05-20T15:33:28.733Z,27.49
2023-05-20T15:35:56.552Z,27.50
2023-05-20T15:38:24.364Z,27.41
2023-05-20T15:40:53.372Z,27.34
2023-05-20T15:43:21.093Z,27.37
2023-05-20T15:45:48.713Z,27.47
2023-05-20T15:48:17.193Z,27.54
2023-05-20T15:50:44.902Z,27.58
2023-05-20T15:53:14.384Z,27.68
2023-05-20T15:55:42.960Z,27.81
2023-05-20T15:58:11.147Z,27.87
2023-05-20T16:00:38.962Z,27.81
2023-05-20T16:03:06.644Z,27.69
2023-05-20T16:05:34.412Z,27.53
2023-05-20T16:08:02.308Z,27.46
2023-05-20T16:10:33.002Z,27.35
2023-05-20T16:13:01.283Z,27.29
2023-05-20T16:15:35.500Z,27.20
2023-05-20T16:18:03.278Z,27.08
2023-05-20T16:20:31.040Z,26.94
2023-05-20T16:22:58.766Z,26.89
2023-05-20T16:25:26.385Z,26.85
2023-05-20T16:27:53.930Z,26.81
2023-05-20T16:30:21.517Z,26.82
2023-05-20T16:32:49.338Z,26.85
2023-05-20T16:35:17.093Z,26.77
2023-05-20T16:37:44.752Z,26.77
2023-05-20T16:40:12.970Z,26.74
2023-05-20T16:42:40.794Z,26.73
2023-05-20T16:45:08.945Z,26.68
2023-05-20T16:47:36.957Z,26.58
2023-05-20T16:50:05.219Z,26.46
2023-05-20T16:52:37.807Z,26.32
2023-05-20T16:55:08.376Z,26.29
2023-05-20T16:57:36.310Z,26.24
2023-05-20T17:00:11.526Z,26.18
2023-05-20T17:02:39.463Z,26.11
2023-05-20T17:05:07.528Z,26.08
2023-05-20T17:07:35.949Z,25.96
2023-05-20T17:10:03.877Z,25.88
2023-05-20T17:12:31.491Z,25.71
2023-05-20T17:14:59.096Z,25.68
2023-05-20T17:17:26.657Z,25.63
2023-05-20T17:19:54.709Z,25.57
2023-05-20T17:22:23.025Z,25.50
2023-05-20T17:24:50.646Z,25.51
2023-05-20T17:27:18.217Z,25.46
2023-05-20T17:29:46.243Z,25.39
2023-05-20T17:32:13.814Z,25.33
2023-05-20T17:34:41.439Z,25.25
2023-05-20T17:37:09.003Z,25.25
2023-05-20T17:39:36.782Z,25.21
2023-05-20T17:42:04.733Z,25.10
2023-05-20T17:44:32.481Z,25.01
2023-05-20T17:47:00.378Z,24.92
2023-05-20T17:49:27.940Z,24.93
2023-05-20T17:51:55.496Z,24.89
2023-05-20T17:54:23.054Z,24.80
2023-05-20T17:56:51.162Z,24.72
2023-05-20T17:59:18.747Z,24.63
2023-05-20T18:01:46.629Z,24.56
2023-05-20T18:04:14.348Z,24.54
2023-05-20T18:06:42.816Z,24.50
2023-05-20T18:09:10.456Z,24.44
2023-05-20T18:11:39.063Z,24.35
2023-05-20T18:14:06.589Z,24.30
2023-05-20T18:16:34.656Z,24.22
2023-05-20T18:19:02.972Z,24.16
2023-05-20T18:21:30.791Z,24.08
2023-05-20T18:23:58.430Z,24.09
2023-05-20T18:26:26.449Z,24.06
2023-05-20T18:28:53.991Z,23.98
2023-05-20T18:31:21.622Z,23.95
2023-05-20T18:33:49.200Z,23.88
2023-05-20T18:36:16.951Z,23.85
2023-05-20T18:38:44.998Z,23.79
2023-05-20T18:41:12.797Z,23.73
2023-05-20T18:43:40.493Z,23.64
2023-05-20T18:46:08.079Z,23.63
2023-05-20T18:48:35.853Z,23.61
2023-05-20T18:51:03.527Z,23.52
2023-05-20T18:53:31.506Z,23.47
2023-05-20T18:56:02.979Z,23.47
2023-05-20T18:58:30.628Z,23.45
2023-05-20T19:00:58.164Z,23.37
2023-05-20T19:03:26.412Z,23.35
2023-05-20T19:05:54.008Z,23.33
2023-05-20T19:08:23.115Z,23.29
2023-05-20T19:10:50.763Z,23.29
2023-05-20T19:13:18.642Z,23.19
2023-05-20T19:15:46.165Z,23.14
2023-05-20T19:18:14.146Z,23.14
2023-05-20T19:20:41.713Z,23.13
2023-05-20T19:23:09.334Z,23.13
2023-05-20T19:25:37.132Z,23.12
2023-05-20T19:28:04.922Z,23.09
2023-05-20T19:30:32.727Z,23.06
2023-05-20T19:33:03.607Z,23.07
2023-05-20T19:35:33.211Z,23.07
2023-05-20T19:38:00.819Z,23.05
2023-05-20T19:40:28.861Z,22.96
2023-05-20T19:42:56.447Z,22.92
2023-05-20T19:45:24.024Z,22.90
2023-05-20T19:47:51.614Z,22.86
2023-05-20T19:50:19.300Z,22.83
2023-05-20T19:52:46.842Z,22.78
2023-05-20T19:55:15.656Z,22.75
2023-05-20T19:57:46.433Z,22.72
2023-05-20T20:00:14.334Z,22.67
2023-05-20T20:02:41.889Z,22.67
2023-05-20T20:05:09.944Z,22.65
2023-05-20T20:07:37.568Z,22.65
2023-05-20T20:10:05.814Z,22.64
2023-05-20T20:12:33.458Z,22.58
2023-05-20T20:15:01.225Z,22.56
2023-05-20T20:17:30.205Z,22.53
2023-05-20T20:19:57.925Z,22.50
2023-05-20T20:22:25.569Z,22.45
2023-05-20T20:24:53.088Z,22.43
2023-05-20T20:27:23.627Z,22.40
2023-05-20T20:29:51.361Z,22.36
2023-05-20T20:32:19.096Z,22.32
2023-05-20T20:34:46.655Z,22.22
2023-05-20T20:37:15.516Z,22.15
2023-05-20T20:39:46.708Z,22.13
2023-05-20T20:42:14.307Z,22.11
2023-05-20T20:44:48.126Z,22.11
2023-05-20T20:47:16.007Z,22.07
2023-05-20T20:49:43.562Z,22.07
2023-05-20T20:52:12.290Z,22.07
2023-05-20T20:54:42.190Z,22.02
2023-05-20T20:57:11.466Z,21.91
2023-05-20T20:59:39.848Z,21.87
2023-05-20T21:02:07.806Z,21.88
2023-05-20T21:04:35.786Z,21.86
2023-05-20T21:07:03.444Z,21.86
2023-05-20T21:09:31.116Z,21.83
2023-05-20T21:12:00.355Z,21.79
2023-05-20T21:14:27.988Z,21.75
2023-05-20T21:16:55.696Z,21.71
2023-05-20T21:19:23.359Z,21.67
2023-05-20T21:21:50.954Z,21.62
2023-05-20T21:24:19.663Z,21.57
2023-05-20T21:26:47.243Z,21.54
2023-05-20T21:29:14.835Z,21.56
2023-05-20T21:31:42.473Z,21.50
2023-05-20T21:34:10.048Z,21.50
2023-05-20T21:36:37.743Z,21.49
2023-05-20T21:39:05.459Z,21.48
2023-05-20T21:41:33.165Z,21.41
2023-05-20T21:44:00.855Z,21.42
2023-05-20T21:46:28.489Z,21.40
2023-05-20T21:48:56.405Z,21.38
2023-05-20T21:51:24.110Z,21.40
2023-05-20T21:53:51.657Z,21.36
2023-05-20T21:56:19.230Z,21.34
2023-05-20T21:58:46.778Z,21.32
2023-05-20T22:01:14.443Z,21.30
2023-05-20T22:03:47.943Z,21.22
2023-05-20T22:06:17.180Z,21.15
2023-05-20T22:08:44.811Z,21.13
2023-05-20T22:11:12.497Z,21.10
2023-05-20T22:13:41.517Z,21.01
2023-05-20T22:16:09.400Z,20.88
2023-05-20T22:18:38.416Z,20.86
2023-05-20T22:21:06.341Z,20.90
2023-05-20T22:23:33.926Z,20.92
2023-05-20T22:26:01.567Z,20.87
2023-05-20T22:28:30.343Z,20.87
2023-05-20T22:30:57.898Z,20.84
2023-05-20T22:33:26.790Z,20.84
2023-05-20T22:35:54.425Z,20.86
2023-05-20T22:38:21.983Z,20.84
2023-05-20T22:40:50.336Z,20.85
2023-05-20T22:43:17.857Z,20.80
2023-05-20T22:45:45.499Z,20.80
2023-05-20T22:48:13.297Z,20.79
2023-05-20T22:50:41.348Z,20.78
2023-05-20T22:53:09.255Z,20.72
2023-05-20T22:55:38.716Z,20.66
2023-05-20T22:58:07.884Z,20.69
2023-05-20T23:00:35.766Z,20.70
2023-05-20T23:03:03.423Z,20.71
2023-05-20T23:05:31.662Z,20.71
2023-05-20T23:07:59.626Z,20.69
2023-05-20T23:10:27.205Z,20.68
2023-05-20T23:12:54.808Z,20.71
2023-05-20T23:15:25.041Z,20.71
2023-05-20T23:17:52.689Z,20.66
2023-05-20T23:20:22.230Z,20.63
2023-05-20T23:22:49.995Z,20.63
2023-05-20T23:25:17.643Z,20.62
2023-05-20T23:27:45.505Z,20.61
2023-05-20T23:30:13.230Z,20.58
2023-05-20T23:32:40.879Z,20.55
2023-05-20T23:35:11.415Z,20.52
2023-05-20T23:37:40.828Z,20.49
2023-05-20T23:40:09.219Z,20.46
2023-05-20T23:42:36.979Z,20.48
2023-05-20T23:45:05.829Z,20.48
2023-05-20T23:47:34.211Z,20.48
2023-05-20T23:50:02.109Z,20.48
2023-05-20T23:52:29.796Z,20.43
2023-05-20T23:54:58.510Z,20.38
2023-05-20T23:57:26.032Z,20.32
2023-05-20T23:59:53.696Z,20.25
